Time;durP1;ratioP1;P1;durP2;ratioP2;P2;SDS_P1;SDS_P2;PMS_P1;PMS_P2;Temp;Humidity;BMP_temperature;BMP_pressure;BME280_temperature;BME280_humidity;BME280_pressure;Samples;Min_cycle;Max_cycle;Signal;HPM_P1;HPM_P2
2023/07/02 00:01:59;;;;;;;9.55;3.10;;;;;;;;;;4986899;28;93029;-76
2023/07/02 00:04:26;;;;;;;9.13;3.00;;;;;;;;;;4987885;28;92523;-76
2023/07/02 00:06:52;;;;;;;10.18;3.50;;;;;;;;;;4979394;28;92935;-76
2023/07/02 00:09:19;;;;;;;11.45;3.20;;;;;;;;;;4989367;27;92960;-77
2023/07/02 00:11:46;;;;;;;10.90;3.88;;;;;;;;;;4991089;27;92418;-77
2023/07/02 00:14:13;;;;;;;11.20;3.70;;;;;;;;;;4987926;27;95425;-76
2023/07/02 00:16:42;;;;;;;11.02;3.70;;;;;;;;;;4993023;28;94283;-76
2023/07/02 00:19:09;;;;;;;11.93;4.40;;;;;;;;;;4991917;27;93990;-77
2023/07/02 00:21:37;;;;;;;11.55;3.78;;;;;;;;;;4991124;28;93128;-78
2023/07/02 00:24:04;;;;;;;11.27;4.10;;;;;;;;;;4992474;27;93240;-76
2023/07/02 00:26:30;;;;;;;13.43;3.55;;;;;;;;;;4989431;28;93862;-79
2023/07/02 00:28:57;;;;;;;12.57;3.92;;;;;;;;;;4985221;28;95745;-76
2023/07/02 00:31:24;;;;;;;12.32;4.10;;;;;;;;;;4992264;28;92256;-76
2023/07/02 00:33:50;;;;;;;9.93;4.30;;;;;;;;;;4990081;28;95401;-77
2023/07/02 00:36:17;;;;;;;12.45;4.13;;;;;;;;;;4991939;28;92962;-77
2023/07/02 00:38:44;;;;;;;10.73;4.07;;;;;;;;;;4991905;28;95778;-77
2023/07/02 00:41:11;;;;;;;;;;;;;;;;;;4989532;27;93065;-77
2023/07/02 00:43:43;;;;;;;14.70;4.63;;;;;;;;;;4992954;27;94961;-77
2023/07/02 00:46:22;;;;;;;16.20;4.85;;;;;;;;;;4989478;27;94318;-77
2023/07/02 00:48:50;;;;;;;13.27;4.18;;;;;;;;;;4982309;28;92960;-77
2023/07/02 00:51:18;;;;;;;10.35;4.10;;;;;;;;;;4991876;28;93682;-77
2023/07/02 00:53:45;;;;;;;11.00;3.25;;;;;;;;;;4991014;27;93167;-76
2023/07/02 00:56:12;;;;;;;11.10;3.75;;;;;;;;;;4988848;28;92797;-77
2023/07/02 00:58:40;;;;;;;10.45;4.03;;;;;;;;;;4989791;28;92496;-77
2023/07/02 01:01:08;;;;;;;13.75;4.88;;;;;;;;;;4992130;28;94368;-78
2023/07/02 01:03:37;;;;;;;11.48;4.20;;;;;;;;;;4988874;27;94865;-77
2023/07/02 01:06:03;;;;;;;13.43;4.80;;;;;;;;;;4991895;28;95723;-78
2023/07/02 01:08:30;;;;;;;11.73;3.80;;;;;;;;;;4989068;28;96377;-77
2023/07/02 01:10:57;;;;;;;16.15;4.47;;;;;;;;;;4992093;27;92851;-77
2023/07/02 01:13:25;;;;;;;12.93;4.50;;;;;;;;;;4990353;27;93347;-77
2023/07/02 01:15:52;;;;;;;12.50;4.22;;;;;;;;;;4991128;28;93051;-77
2023/07/02 01:18:19;;;;;;;9.60;3.60;;;;;;;;;;4989502;28;92401;-77
2023/07/02 01:20:47;;;;;;;11.85;4.13;;;;;;;;;;4990900;28;92757;-77
2023/07/02 01:23:14;;;;;;;11.25;4.30;;;;;;;;;;4993724;28;93587;-78
2023/07/02 01:25:41;;;;;;;13.85;4.40;;;;;;;;;;4990842;27;92780;-78
2023/07/02 01:28:07;;;;;;;11.05;4.18;;;;;;;;;;4988125;28;96693;-78
2023/07/02 01:30:34;;;;;;;12.40;4.38;;;;;;;;;;4990466;28;92845;-78
2023/07/02 01:33:00;;;;;;;10.60;3.95;;;;;;;;;;4992411;27;92720;-78
2023/07/02 01:35:27;;;;;;;11.60;4.13;;;;;;;;;;4992006;27;92827;-78
2023/07/02 01:37:54;;;;;;;12.68;4.25;;;;;;;;;;4987148;28;94217;-78
2023/07/02 01:40:21;;;;;;;11.65;4.18;;;;;;;;;;4992066;27;92712;-77
2023/07/02 01:42:47;;;;;;;14.90;4.10;;;;;;;;;;4989230;28;95747;-77
2023/07/02 01:45:14;;;;;;;10.45;4.00;;;;;;;;;;4992716;28;91823;-77
2023/07/02 01:47:40;;;;;;;11.38;3.88;;;;;;;;;;4989505;27;94078;-77
2023/07/02 01:50:09;;;;;;;9.68;3.92;;;;;;;;;;4990808;28;92468;-77
2023/07/02 01:52:35;;;;;;;12.38;4.32;;;;;;;;;;4989816;28;95542;-77
2023/07/02 01:55:02;;;;;;;11.40;4.18;;;;;;;;;;4993841;27;93104;-77
2023/07/02 01:57:30;;;;;;;11.40;4.30;;;;;;;;;;4974487;28;92553;-76
2023/07/02 01:59:57;;;;;;;11.77;4.10;;;;;;;;;;4993566;28;95576;-77
2023/07/02 02:02:24;;;;;;;12.25;4.50;;;;;;;;;;4993375;28;94481;-77
2023/07/02 02:04:51;;;;;;;13.50;4.50;;;;;;;;;;4994232;28;92575;-77
2023/07/02 02:07:18;;;;;;;13.02;4.60;;;;;;;;;;4997051;28;94158;-77
2023/07/02 02:09:45;;;;;;;13.80;4.32;;;;;;;;;;5000236;28;91846;-76
2023/07/02 02:12:13;;;;;;;11.82;4.30;;;;;;;;;;5001198;28;92493;-76
2023/07/02 02:14:39;;;;;;;12.45;4.47;;;;;;;;;;4993121;27;93468;-77
2023/07/02 02:17:06;;;;;;;12.52;4.70;;;;;;;;;;4991254;28;94882;-77
2023/07/02 02:19:32;;;;;;;11.63;4.53;;;;;;;;;;4991018;28;95173;-77
2023/07/02 02:21:59;;;;;;;12.02;4.60;;;;;;;;;;4991650;28;93060;-77
2023/07/02 02:24:25;;;;;;;12.57;4.70;;;;;;;;;;4991743;28;93197;-77
2023/07/02 02:26:53;;;;;;;13.25;4.90;;;;;;;;;;4995164;28;92746;-77
2023/07/02 02:29:20;;;;;;;11.95;4.38;;;;;;;;;;4990291;28;92407;-78
2023/07/02 02:31:46;;;;;;;10.43;4.57;;;;;;;;;;4987386;28;98884;-77
2023/07/02 02:34:13;;;;;;;13.60;4.78;;;;;;;;;;4986153;28;94767;-78
2023/07/02 02:36:40;;;;;;;13.43;4.70;;;;;;;;;;4988741;28;92849;-78
2023/07/02 02:39:07;;;;;;;14.80;5.18;;;;;;;;;;4990066;28;92852;-77
2023/07/02 02:41:33;;;;;;;12.73;5.20;;;;;;;;;;4987395;28;96695;-77
2023/07/02 02:44:00;;;;;;;11.10;4.20;;;;;;;;;;4987829;28;92554;-77
2023/07/02 02:46:26;;;;;;;12.02;4.72;;;;;;;;;;4971771;28;93645;-78
2023/07/02 02:48:53;;;;;;;13.57;5.28;;;;;;;;;;4991915;27;94989;-77
2023/07/02 02:51:20;;;;;;;12.48;4.47;;;;;;;;;;4987846;28;95676;-78
2023/07/02 02:53:47;;;;;;;14.18;5.00;;;;;;;;;;4988573;28;98986;-78
2023/07/02 02:56:13;;;;;;;11.45;4.55;;;;;;;;;;4989575;27;92537;-78
2023/07/02 02:58:40;;;;;;;13.60;4.90;;;;;;;;;;4989722;28;92890;-78
2023/07/02 03:01:10;;;;;;;14.00;4.53;;;;;;;;;;4985594;28;95781;-78
2023/07/02 03:03:44;;;;;;;13.40;4.93;;;;;;;;;;4975901;28;92457;-77
2023/07/02 03:06:12;;;;;;;14.88;5.32;;;;;;;;;;4988480;28;96362;-78
2023/07/02 03:08:39;;;;;;;13.55;4.70;;;;;;;;;;4989291;28;93044;-78
2023/07/02 03:11:05;;;;;;;12.82;4.93;;;;;;;;;;4992476;28;92744;-77
2023/07/02 03:13:32;;;;;;;13.77;5.05;;;;;;;;;;4971126;27;96402;-77
2023/07/02 03:15:59;;;;;;;11.60;5.25;;;;;;;;;;4987705;28;93075;-77
2023/07/02 03:18:25;;;;;;;12.88;4.75;;;;;;;;;;4986832;28;95221;-78
2023/07/02 03:20:52;;;;;;;13.82;5.53;;;;;;;;;;4982289;28;93937;-78
2023/07/02 03:23:18;;;;;;;13.10;5.18;;;;;;;;;;4989428;27;91738;-77
2023/07/02 03:25:45;;;;;;;13.50;4.53;;;;;;;;;;4988379;28;92468;-77
2023/07/02 03:28:11;;;;;;;13.35;4.50;;;;;;;;;;4988953;27;94125;-77
2023/07/02 03:30:38;;;;;;;13.77;4.80;;;;;;;;;;4987435;27;95458;-77
2023/07/02 03:33:04;;;;;;;15.10;5.25;;;;;;;;;;4991951;28;95354;-77
2023/07/02 03:35:31;;;;;;;15.60;5.32;;;;;;;;;;4988044;27;92570;-78
2023/07/02 03:37:57;;;;;;;11.98;5.07;;;;;;;;;;4989177;28;92902;-78
2023/07/02 03:40:24;;;;;;;13.45;5.22;;;;;;;;;;4988998;28;92381;-77
2023/07/02 03:42:50;;;;;;;14.75;5.20;;;;;;;;;;4987932;28;92569;-77
2023/07/02 03:45:17;;;;;;;13.52;5.47;;;;;;;;;;4980316;28;92806;-78
2023/07/02 03:47:43;;;;;;;13.75;5.13;;;;;;;;;;4988034;27;92255;-77
2023/07/02 03:50:10;;;;;;;11.82;5.18;;;;;;;;;;4987954;28;92449;-77
2023/07/02 03:52:36;;;;;;;13.57;5.75;;;;;;;;;;4991170;28;92998;-77
2023/07/02 03:55:04;;;;;;;16.60;5.88;;;;;;;;;;4986821;28;95272;-77
2023/07/02 03:57:31;;;;;;;17.30;6.22;;;;;;;;;;4987385;27;96303;-75
2023/07/02 03:59:57;;;;;;;11.30;4.60;;;;;;;;;;4988370;28;93161;-76
2023/07/02 04:02:24;;;;;;;13.68;4.72;;;;;;;;;;4988204;28;93003;-76
2023/07/02 04:04:50;;;;;;;13.32;4.90;;;;;;;;;;4987927;28;93933;-76
2023/07/02 04:07:17;;;;;;;13.60;4.55;;;;;;;;;;4988495;28;92995;-77
2023/07/02 04:09:43;;;;;;;14.32;4.50;;;;;;;;;;4987917;28;93061;-76
2023/07/02 04:12:10;;;;;;;12.68;5.25;;;;;;;;;;4989108;27;92927;-76
2023/07/02 04:14:37;;;;;;;14.05;5.35;;;;;;;;;;4991483;28;93261;-77
2023/07/02 04:17:03;;;;;;;15.48;5.47;;;;;;;;;;4988502;28;93010;-78
2023/07/02 04:19:30;;;;;;;13.98;5.25;;;;;;;;;;4985394;27;95515;-77
2023/07/02 04:21:57;;;;;;;13.68;5.90;;;;;;;;;;4988373;28;92556;-78
2023/07/02 04:24:23;;;;;;;15.73;5.93;;;;;;;;;;4988009;28;92838;-78
2023/07/02 04:26:50;;;;;;;17.70;5.63;;;;;;;;;;4986065;28;94055;-78
2023/07/02 04:29:37;;;;;;;13.98;5.68;;;;;;;;;;4976660;28;92339;-77
2023/07/02 04:32:03;;;;;;;11.43;4.85;;;;;;;;;;4988437;28;93005;-77
2023/07/02 04:34:30;;;;;;;14.27;5.65;;;;;;;;;;4987371;28;92972;-77
2023/07/02 04:36:56;;;;;;;15.30;5.40;;;;;;;;;;4991120;28;94722;-77
2023/07/02 04:39:23;;;;;;;17.40;5.97;;;;;;;;;;4986416;27;94174;-76
2023/07/02 04:41:52;;;;;;;15.15;5.93;;;;;;;;;;4979066;28;92790;-77
2023/07/02 04:44:20;;;;;;;18.58;5.43;;;;;;;;;;4986114;28;94886;-78
2023/07/02 04:46:47;;;;;;;15.27;5.35;;;;;;;;;;4987219;28;93096;-78
2023/07/02 04:49:13;;;;;;;12.80;5.25;;;;;;;;;;4987543;28;93827;-76
2023/07/02 04:51:40;;;;;;;14.75;5.65;;;;;;;;;;4985353;28;92785;-80
2023/07/02 04:54:06;;;;;;;14.48;5.88;;;;;;;;;;4976069;28;94085;-79
2023/07/02 04:56:33;;;;;;;15.40;5.70;;;;;;;;;;4990449;27;92401;-77
2023/07/02 04:58:59;;;;;;;16.60;5.43;;;;;;;;;;4993864;27;93312;-77
2023/07/02 05:01:27;;;;;;;16.67;5.65;;;;;;;;;;4986367;28;92109;-76
2023/07/02 05:03:54;;;;;;;17.50;6.20;;;;;;;;;;4990692;28;92800;-77
2023/07/02 05:06:21;;;;;;;15.52;5.25;;;;;;;;;;4990682;28;94176;-76
2023/07/02 05:08:47;;;;;;;17.33;5.97;;;;;;;;;;4997434;27;95366;-77
2023/07/02 05:11:14;;;;;;;18.55;5.80;;;;;;;;;;4990312;28;95615;-77
2023/07/02 05:13:40;;;;;;;15.70;5.65;;;;;;;;;;4989655;28;94202;-76
2023/07/02 05:16:07;;;;;;;18.73;6.18;;;;;;;;;;4990958;28;92399;-77
2023/07/02 05:18:34;;;;;;;17.83;6.38;;;;;;;;;;4990697;28;92775;-77
2023/07/02 05:21:00;;;;;;;18.02;5.72;;;;;;;;;;4992156;28;93366;-77
2023/07/02 05:23:27;;;;;;;20.27;6.13;;;;;;;;;;5000028;28;93817;-77
2023/07/02 05:25:53;;;;;;;17.58;6.13;;;;;;;;;;4991885;28;92852;-77
2023/07/02 05:28:20;;;;;;;15.77;5.70;;;;;;;;;;4990664;28;92483;-77
2023/07/02 05:30:46;;;;;;;18.83;5.90;;;;;;;;;;4990672;28;93539;-77
2023/07/02 05:33:13;;;;;;;14.98;5.85;;;;;;;;;;4988939;28;96180;-77
2023/07/02 05:35:40;;;;;;;18.92;6.15;;;;;;;;;;4989352;28;92737;-78
2023/07/02 05:38:07;;;;;;;17.52;5.50;;;;;;;;;;4990728;28;92920;-77
2023/07/02 05:40:33;;;;;;;16.15;5.68;;;;;;;;;;4978443;28;95692;-77
2023/07/02 05:43:00;;;;;;;15.85;5.65;;;;;;;;;;4984359;28;92856;-77
2023/07/02 05:45:27;;;;;;;15.27;5.55;;;;;;;;;;4987439;28;99325;-77
2023/07/02 05:47:53;;;;;;;18.08;6.03;;;;;;;;;;4975249;28;92727;-77
2023/07/02 05:50:20;;;;;;;17.55;5.88;;;;;;;;;;4985449;28;92915;-77
2023/07/02 05:52:46;;;;;;;16.63;6.18;;;;;;;;;;4990125;28;94439;-77
2023/07/02 05:55:13;;;;;;;16.52;5.57;;;;;;;;;;4990663;28;92553;-76
2023/07/02 05:57:39;;;;;;;15.25;5.57;;;;;;;;;;4987013;27;95690;-76
2023/07/02 06:00:06;;;;;;;15.00;5.43;;;;;;;;;;4990057;28;93714;-76
2023/07/02 06:02:39;;;;;;;16.10;5.03;;;;;;;;;;4978796;28;92415;-76
2023/07/02 06:05:06;;;;;;;16.60;5.70;;;;;;;;;;4989619;28;93013;-76
2023/07/02 06:07:32;;;;;;;18.65;5.55;;;;;;;;;;4991137;27;92616;-76
2023/07/02 06:09:59;;;;;;;15.57;5.05;;;;;;;;;;4991096;28;92747;-77
2023/07/02 06:12:25;;;;;;;13.43;4.97;;;;;;;;;;4990005;28;93260;-77
2023/07/02 06:14:52;;;;;;;16.08;5.40;;;;;;;;;;4990390;27;92847;-77
2023/07/02 06:17:20;;;;;;;16.73;5.90;;;;;;;;;;4990254;28;92621;-77
2023/07/02 06:19:47;;;;;;;15.77;5.28;;;;;;;;;;4970849;28;98856;-77
2023/07/02 06:22:13;;;;;;;18.13;5.57;;;;;;;;;;4972092;28;95021;-77
2023/07/02 06:24:40;;;;;;;16.92;5.50;;;;;;;;;;4982813;28;95719;-77
2023/07/02 06:27:06;;;;;;;14.98;5.13;;;;;;;;;;4984396;28;92729;-78
2023/07/02 06:29:33;;;;;;;17.65;5.20;;;;;;;;;;4989435;27;93087;-77
2023/07/02 06:31:59;;;;;;;15.93;5.00;;;;;;;;;;4988113;28;93241;-78
2023/07/02 06:34:26;;;;;;;15.60;4.82;;;;;;;;;;4983410;28;93264;-77
2023/07/02 06:36:52;;;;;;;14.57;4.88;;;;;;;;;;4982204;28;93076;-77
2023/07/02 06:39:19;;;;;;;16.55;5.07;;;;;;;;;;4989067;27;93455;-77
2023/07/02 06:41:46;;;;;;;15.48;4.93;;;;;;;;;;4977998;27;92676;-77
2023/07/02 06:44:12;;;;;;;15.20;5.15;;;;;;;;;;4986346;28;92567;-77
2023/07/02 06:46:39;;;;;;;13.77;5.00;;;;;;;;;;4984862;28;95581;-77
2023/07/02 06:49:05;;;;;;;15.85;5.45;;;;;;;;;;4984251;27;95137;-77
2023/07/02 06:51:34;;;;;;;15.90;5.15;;;;;;;;;;4988842;28;93104;-77
2023/07/02 06:54:00;;;;;;;15.18;4.85;;;;;;;;;;4982771;28;92560;-76
2023/07/02 06:56:27;;;;;;;15.52;5.10;;;;;;;;;;4978978;28;93015;-77
2023/07/02 06:58:53;;;;;;;14.68;4.88;;;;;;;;;;4988834;28;93919;-77
2023/07/02 07:01:20;;;;;;;15.13;5.20;;;;;;;;;;4988841;27;92729;-76
2023/07/02 07:03:47;;;;;;;15.45;4.90;;;;;;;;;;4986581;28;97719;-77
2023/07/02 07:06:15;;;;;;;15.40;5.15;;;;;;;;;;4976576;28;94230;-78
2023/07/02 07:08:41;;;;;;;13.45;4.85;;;;;;;;;;4992058;28;93609;-77
2023/07/02 07:11:08;;;;;;;14.32;4.65;;;;;;;;;;4987715;27;95554;-77
2023/07/02 07:13:34;;;;;;;15.90;5.00;;;;;;;;;;4987917;27;92505;-78
2023/07/02 07:16:01;;;;;;;14.25;4.50;;;;;;;;;;4984563;28;92907;-77
2023/07/02 07:18:28;;;;;;;14.05;5.40;;;;;;;;;;4987643;27;93647;-76
2023/07/02 07:20:58;;;;;;;14.00;4.40;;;;;;;;;;4977474;28;92533;-77
2023/07/02 07:23:24;;;;;;;13.55;4.60;;;;;;;;;;4984926;27;92838;-77
2023/07/02 07:25:51;;;;;;;14.13;4.60;;;;;;;;;;4986975;28;93764;-80
2023/07/02 07:28:18;;;;;;;15.13;4.95;;;;;;;;;;4985477;28;91717;-78
2023/07/02 07:30:44;;;;;;;14.02;4.63;;;;;;;;;;4981086;28;92981;-76
2023/07/02 07:33:11;;;;;;;15.48;4.50;;;;;;;;;;4988163;27;92450;-76
2023/07/02 07:35:37;;;;;;;14.18;4.18;;;;;;;;;;4986480;28;95441;-78
2023/07/02 07:38:04;;;;;;;13.75;4.40;;;;;;;;;;4986130;28;94200;-77
2023/07/02 07:40:30;;;;;;;13.77;4.43;;;;;;;;;;4987033;28;92760;-76
2023/07/02 07:42:57;;;;;;;10.70;4.20;;;;;;;;;;4986195;28;97086;-76
2023/07/02 07:45:24;;;;;;;13.15;4.20;;;;;;;;;;4987582;28;93167;-75
2023/07/02 07:47:50;;;;;;;12.90;4.10;;;;;;;;;;4987587;28;92530;-76
2023/07/02 07:50:17;;;;;;;13.35;3.80;;;;;;;;;;4988477;27;92987;-77
2023/07/02 07:52:44;;;;;;;11.60;4.07;;;;;;;;;;4991077;28;92145;-76
2023/07/02 07:55:10;;;;;;;15.93;5.20;;;;;;;;;;4988857;27;92807;-77
2023/07/02 07:57:37;;;;;;;11.50;4.10;;;;;;;;;;4987005;28;94555;-77
2023/07/02 08:00:07;;;;;;;13.25;4.10;;;;;;;;;;4986926;28;94865;-77
2023/07/02 08:02:45;;;;;;;12.90;4.30;;;;;;;;;;4985912;28;95586;-77
2023/07/02 08:05:11;;;;;;;12.60;4.15;;;;;;;;;;4987409;28;94110;-77
2023/07/02 08:07:38;;;;;;;14.13;4.28;;;;;;;;;;4978041;28;92534;-77
2023/07/02 08:10:05;;;;;;;14.18;4.32;;;;;;;;;;4987898;27;92711;-77
2023/07/02 08:12:32;;;;;;;12.68;4.22;;;;;;;;;;4988306;28;96063;-77
2023/07/02 08:14:58;;;;;;;14.02;3.80;;;;;;;;;;4987719;27;93257;-77
2023/07/02 08:17:25;;;;;;;12.32;4.50;;;;;;;;;;4987895;27;92118;-77
2023/07/02 08:19:51;;;;;;;13.55;4.32;;;;;;;;;;4987966;28;92811;-77
2023/07/02 08:22:18;;;;;;;11.90;4.20;;;;;;;;;;4995826;28;93944;-76
2023/07/02 08:24:45;;;;;;;12.52;3.97;;;;;;;;;;4982607;28;95517;-77
2023/07/02 08:27:13;;;;;;;14.25;4.25;;;;;;;;;;4982659;28;92486;-76
2023/07/02 08:29:40;;;;;;;16.15;4.40;;;;;;;;;;4987109;27;92991;-76
2023/07/02 08:32:07;;;;;;;13.07;4.43;;;;;;;;;;4978268;28;93153;-77
2023/07/02 08:34:34;;;;;;;14.00;4.13;;;;;;;;;;4988934;28;92847;-77
2023/07/02 08:37:00;;;;;;;10.55;4.45;;;;;;;;;;4990946;27;93800;-77
2023/07/02 08:39:27;;;;;;;14.73;4.15;;;;;;;;;;4986942;27;93454;-77
2023/07/02 08:41:53;;;;;;;11.45;4.05;;;;;;;;;;4991616;27;93286;-77
2023/07/02 08:44:21;;;;;;;14.50;4.22;;;;;;;;;;4990149;27;93106;-77
2023/07/02 08:46:53;;;;;;;12.85;4.00;;;;;;;;;;4990503;27;92620;-78
2023/07/02 08:49:19;;;;;;;10.20;3.63;;;;;;;;;;4989118;27;95156;-78
2023/07/02 08:51:46;;;;;;;13.07;3.60;;;;;;;;;;4988320;27;93136;-78
2023/07/02 08:54:14;;;;;;;10.75;3.90;;;;;;;;;;4990606;28;92496;-78
2023/07/02 08:56:41;;;;;;;11.02;3.95;;;;;;;;;;4984165;28;93059;-78
2023/07/02 08:59:08;;;;;;;12.40;3.63;;;;;;;;;;4985386;28;92437;-78
2023/07/02 09:01:48;;;;;;;12.77;3.85;;;;;;;;;;4989528;27;92787;-79
2023/07/02 09:04:19;;;;;;;11.57;3.83;;;;;;;;;;4989774;27;93209;-80
2023/07/02 09:06:46;;;;;;;9.20;3.50;;;;;;;;;;4990961;27;92057;-77
2023/07/02 09:09:13;;;;;;;11.15;3.40;;;;;;;;;;4987981;28;92446;-78
2023/07/02 09:11:49;;;;;;;11.77;3.38;;;;;;;;;;4989908;27;93631;-75
2023/07/02 09:14:26;;;;;;;12.52;3.90;;;;;;;;;;4988834;27;94970;-78
2023/07/02 09:17:03;;;;;;;10.93;3.85;;;;;;;;;;4990487;27;96284;-78
2023/07/02 09:19:29;;;;;;;9.80;3.60;;;;;;;;;;4991253;28;93318;-78
2023/07/02 09:21:59;;;;;;;12.30;3.45;;;;;;;;;;4984246;28;92769;-79
2023/07/02 09:24:26;;;;;;;11.02;3.50;;;;;;;;;;4988361;28;95121;-78
2023/07/02 09:26:57;;;;;;;12.15;3.45;;;;;;;;;;4990330;28;93063;-79
2023/07/02 09:29:24;;;;;;;9.93;3.35;;;;;;;;;;4990250;28;92961;-78
2023/07/02 09:31:51;;;;;;;10.35;3.33;;;;;;;;;;4990218;27;91665;-77
2023/07/02 09:34:36;;;;;;;10.77;3.60;;;;;;;;;;4982650;28;92501;-79
2023/07/02 09:37:05;;;;;;;9.02;3.10;;;;;;;;;;4984564;28;92504;-79
2023/07/02 09:39:32;;;;;;;11.57;3.33;;;;;;;;;;4980052;28;97740;-78
2023/07/02 09:42:00;;;;;;;10.32;3.38;;;;;;;;;;4992226;27;93032;-77
2023/07/02 09:44:30;;;;;;;8.88;3.00;;;;;;;;;;4990794;28;93103;-76
2023/07/02 09:47:05;;;;;;;9.02;3.08;;;;;;;;;;4990183;28;93062;-78
2023/07/02 09:49:32;;;;;;;10.00;3.33;;;;;;;;;;4981547;28;93386;-78
2023/07/02 09:52:00;;;;;;;9.95;3.10;;;;;;;;;;4989542;28;93047;-78
2023/07/02 09:54:27;;;;;;;9.48;2.90;;;;;;;;;;4987907;28;92602;-78
2023/07/02 09:56:55;;;;;;;9.15;2.78;;;;;;;;;;4990009;28;93968;-80
2023/07/02 09:59:21;;;;;;;;;;;;;;;;;;4988076;28;95492;-77
2023/07/02 10:01:48;;;;;;;6.97;2.30;;;;;;;;;;4980551;28;111467;-79
2023/07/02 10:04:15;;;;;;;10.70;3.35;;;;;;;;;;4967186;28;95147;-78
2023/07/02 10:06:46;;;;;;;8.60;2.50;;;;;;;;;;4956783;28;92884;-77
2023/07/02 10:09:12;;;;;;;9.13;2.65;;;;;;;;;;4970161;28;92989;-78
2023/07/02 10:11:39;;;;;;;9.30;3.08;;;;;;;;;;4964449;28;93507;-84
2023/07/02 10:14:05;;;;;;;7.68;2.33;;;;;;;;;;4974926;28;92439;-78
2023/07/02 10:16:32;;;;;;;9.55;2.80;;;;;;;;;;4975156;28;92726;-78
2023/07/02 10:19:11;;;;;;;7.95;2.70;;;;;;;;;;4966501;28;93128;-77
2023/07/02 10:21:38;;;;;;;12.77;2.75;;;;;;;;;;4977072;28;91668;-79
2023/07/02 10:24:11;;;;;;;7.28;2.70;;;;;;;;;;4992463;28;92769;-77
2023/07/02 10:26:38;;;;;;;9.00;2.47;;;;;;;;;;4988667;28;92410;-77
2023/07/02 10:29:06;;;;;;;7.78;2.53;;;;;;;;;;4986558;28;94867;-76
2023/07/02 10:31:32;;;;;;;10.18;2.63;;;;;;;;;;4984828;27;93038;-76
2023/07/02 10:33:59;;;;;;;7.65;2.65;;;;;;;;;;4992051;28;92440;-77
2023/07/02 10:36:26;;;;;;;6.80;2.50;;;;;;;;;;4973420;28;92422;-76
2023/07/02 10:38:52;;;;;;;8.90;2.47;;;;;;;;;;4988434;28;93175;-77
2023/07/02 10:41:29;;;;;;;6.88;2.42;;;;;;;;;;4991646;28;92440;-78
2023/07/02 10:44:25;;;;;;;7.50;2.58;;;;;;;;;;4975078;28;97422;-78
2023/07/02 10:46:51;;;;;;;9.23;2.50;;;;;;;;;;4988999;28;95787;-78
2023/07/02 10:49:20;;;;;;;6.78;2.40;;;;;;;;;;4977441;28;92376;-78
2023/07/02 10:51:56;;;;;;;7.20;2.50;;;;;;;;;;4972642;28;98321;-77
2023/07/02 10:54:22;;;;;;;9.68;2.58;;;;;;;;;;4984952;28;95196;-78
2023/07/02 10:56:49;;;;;;;7.38;2.67;;;;;;;;;;4980641;28;95274;-77
2023/07/02 10:59:25;;;;;;;10.13;2.85;;;;;;;;;;4987610;27;94525;-79
2023/07/02 11:01:51;;;;;;;10.93;2.50;;;;;;;;;;4963746;28;92642;-77
2023/07/02 11:04:18;;;;;;;8.43;2.70;;;;;;;;;;4987412;28;92959;-77
2023/07/02 11:06:47;;;;;;;7.20;2.60;;;;;;;;;;4990036;28;92861;-77
2023/07/02 11:09:24;;;;;;;8.20;2.58;;;;;;;;;;4992608;28;92820;-77
2023/07/02 11:11:52;;;;;;;7.22;2.83;;;;;;;;;;4989324;27;97378;-80
2023/07/02 11:14:28;;;;;;;8.80;2.88;;;;;;;;;;4981042;28;92477;-79
2023/07/02 11:16:55;;;;;;;8.07;2.95;;;;;;;;;;4981423;28;92824;-79
2023/07/02 11:19:22;;;;;;;9.73;3.03;;;;;;;;;;4982373;27;96065;-77
2023/07/02 11:21:52;;;;;;;8.32;2.90;;;;;;;;;;4989840;27;92554;-78
2023/07/02 11:24:30;;;;;;;10.02;2.92;;;;;;;;;;4987779;28;93692;-78
2023/07/02 11:26:58;;;;;;;8.20;2.60;;;;;;;;;;4989307;27;93084;-78
2023/07/02 11:29:25;;;;;;;8.10;2.70;;;;;;;;;;4974947;27;93109;-79
2023/07/02 11:31:51;;;;;;;9.20;3.10;;;;;;;;;;4991313;28;93032;-83
2023/07/02 11:34:18;;;;;;;8.90;3.20;;;;;;;;;;4989113;28;93089;-80
2023/07/02 11:36:50;;;;;;;10.43;3.45;;;;;;;;;;4983601;28;93291;-78
2023/07/02 11:39:17;;;;;;;10.05;3.20;;;;;;;;;;4993201;28;94396;-79
2023/07/02 11:41:47;;;;;;;8.27;3.20;;;;;;;;;;4986167;28;92423;-79
2023/07/02 11:44:15;;;;;;;;;;;;;;;;;;4967350;28;95707;-79
2023/07/02 11:46:42;;;;;;;9.38;3.00;;;;;;;;;;4971198;28;115798;-80
2023/07/02 11:49:08;;;;;;;7.80;2.50;;;;;;;;;;4969434;28;92424;-79
2023/07/02 11:51:36;;;;;;;8.52;2.88;;;;;;;;;;4969011;28;93464;-79
2023/07/02 11:54:04;;;;;;;8.50;3.20;;;;;;;;;;4972005;28;93149;-79
2023/07/02 11:56:30;;;;;;;;;;;;;;;;;;4969857;28;92877;-81
2023/07/02 11:58:57;;;;;;;9.55;3.08;;;;;;;;;;4969477;28;118417;-80
2023/07/02 12:01:24;;;;;;;13.10;3.13;;;;;;;;;;4968588;28;91699;-79
2023/07/02 12:03:50;;;;;;;9.25;2.78;;;;;;;;;;4978446;28;93217;-82
2023/07/02 12:06:17;;;;;;;8.43;2.83;;;;;;;;;;4975862;28;93092;-80
2023/07/02 12:08:44;;;;;;;9.65;3.05;;;;;;;;;;4994439;28;95070;-80
2023/07/02 12:11:11;;;;;;;8.07;2.78;;;;;;;;;;4973749;28;95704;-82
2023/07/02 12:13:37;;;;;;;8.77;3.13;;;;;;;;;;4996634;28;92847;-80
2023/07/02 12:16:04;;;;;;;10.60;3.17;;;;;;;;;;4974120;28;92562;-81
2023/07/02 12:18:30;;;;;;;9.73;3.03;;;;;;;;;;4976040;28;94655;-79
2023/07/02 12:20:57;;;;;;;11.23;2.70;;;;;;;;;;4975247;28;92411;-79
2023/07/02 12:23:23;;;;;;;9.10;3.08;;;;;;;;;;4968777;28;93905;-79
2023/07/02 12:25:50;;;;;;;10.23;3.17;;;;;;;;;;4974949;28;91835;-79
2023/07/02 12:28:17;;;;;;;8.18;3.45;;;;;;;;;;4955492;28;92609;-79
2023/07/02 12:30:44;;;;;;;12.10;3.10;;;;;;;;;;5003784;28;92730;-79
2023/07/02 12:33:10;;;;;;;10.27;3.20;;;;;;;;;;4961314;28;95961;-79
2023/07/02 12:35:37;;;;;;;9.93;3.97;;;;;;;;;;4977258;28;92690;-79
2023/07/02 12:38:03;;;;;;;9.25;2.95;;;;;;;;;;4960613;28;93184;-80
2023/07/02 12:40:30;;;;;;;8.32;2.80;;;;;;;;;;4974433;28;92653;-80
2023/07/02 12:42:58;;;;;;;8.27;3.60;;;;;;;;;;4958252;28;94059;-80
2023/07/02 12:45:24;;;;;;;8.98;2.88;;;;;;;;;;4987977;28;93234;-79
2023/07/02 12:47:51;;;;;;;9.23;3.00;;;;;;;;;;4952996;28;92472;-80
2023/07/02 12:50:18;;;;;;;8.85;3.20;;;;;;;;;;4987033;28;92962;-79
2023/07/02 12:52:46;;;;;;;8.95;3.50;;;;;;;;;;4968887;28;93092;-79
2023/07/02 12:55:12;;;;;;;8.55;2.90;;;;;;;;;;4976112;28;92755;-78
2023/07/02 12:57:39;;;;;;;7.75;2.88;;;;;;;;;;5007186;28;95562;-79
2023/07/02 13:00:06;;;;;;;8.93;3.22;;;;;;;;;;4987097;28;92534;-81
2023/07/02 13:02:33;;;;;;;9.25;3.22;;;;;;;;;;4954859;28;92728;-80
2023/07/02 13:05:12;;;;;;;10.95;3.45;;;;;;;;;;4973213;28;93423;-80
2023/07/02 13:07:39;;;;;;;9.25;3.35;;;;;;;;;;4962156;28;92428;-79
2023/07/02 13:10:05;;;;;;;9.02;3.00;;;;;;;;;;4974487;28;92716;-79
2023/07/02 13:12:32;;;;;;;10.07;3.15;;;;;;;;;;4974439;28;94416;-80
2023/07/02 13:14:58;;;;;;;9.43;3.40;;;;;;;;;;4969650;28;92166;-81
2023/07/02 13:17:25;;;;;;;10.75;3.38;;;;;;;;;;4971039;28;93074;-81
2023/07/02 13:19:56;;;;;;;8.93;3.67;;;;;;;;;;4974601;28;96175;-81
2023/07/02 13:22:22;;;;;;;9.25;3.55;;;;;;;;;;4961143;28;95085;-81
2023/07/02 13:24:49;;;;;;;9.63;3.40;;;;;;;;;;4970879;28;93395;-81
2023/07/02 13:27:17;;;;;;;9.82;3.60;;;;;;;;;;4971611;28;92681;-81
2023/07/02 13:29:43;;;;;;;9.48;3.78;;;;;;;;;;5002084;28;92824;-81
2023/07/02 13:32:11;;;;;;;10.05;3.35;;;;;;;;;;4970359;28;92881;-81
2023/07/02 13:34:38;;;;;;;9.75;3.63;;;;;;;;;;4970143;28;93039;-81
2023/07/02 13:37:04;;;;;;;7.85;3.42;;;;;;;;;;4962585;28;93340;-79
2023/07/02 13:39:31;;;;;;;9.35;3.50;;;;;;;;;;4967734;28;93914;-81
2023/07/02 13:41:57;;;;;;;10.27;3.10;;;;;;;;;;4973225;28;92393;-80
2023/07/02 13:44:24;;;;;;;8.63;3.67;;;;;;;;;;4969606;28;92894;-81
2023/07/02 13:46:51;;;;;;;9.30;3.50;;;;;;;;;;5002065;28;95291;-80
2023/07/02 13:49:17;;;;;;;7.97;3.47;;;;;;;;;;4968738;28;96133;-78
2023/07/02 13:51:44;;;;;;;8.93;3.22;;;;;;;;;;4968067;28;95099;-78
2023/07/02 13:54:12;;;;;;;8.68;3.55;;;;;;;;;;4968529;28;92726;-80
2023/07/02 13:56:38;;;;;;;8.80;3.22;;;;;;;;;;4968860;28;92949;-80
2023/07/02 13:59:05;;;;;;;8.57;3.38;;;;;;;;;;4990203;27;93175;-80
2023/07/02 14:01:32;;;;;;;8.88;3.33;;;;;;;;;;4989283;27;92532;-80
2023/07/02 14:03:59;;;;;;;8.70;3.42;;;;;;;;;;4985944;28;94200;-80
2023/07/02 14:06:26;;;;;;;8.57;3.15;;;;;;;;;;4990209;28;92483;-80
2023/07/02 14:08:53;;;;;;;8.02;2.92;;;;;;;;;;4990342;28;92872;-80
2023/07/02 14:11:20;;;;;;;8.75;3.22;;;;;;;;;;4987305;28;95572;-80
2023/07/02 14:13:46;;;;;;;;;;;;;;;;;;4990851;28;93043;-80
2023/07/02 14:16:13;;;;;;;8.50;3.25;;;;;;;;;;4990881;28;93418;-80
2023/07/02 14:18:40;;;;;;;;;;;;;;;;;;4991322;27;93218;-79
2023/07/02 14:21:07;;;;;;;8.38;2.78;;;;;;;;;;4993857;28;99284;-79
2023/07/02 14:23:33;;;;;;;8.48;2.90;;;;;;;;;;4991881;28;92893;-79
2023/07/02 14:26:00;;;;;;;8.82;3.42;;;;;;;;;;4990217;27;92503;-79
2023/07/02 14:28:29;;;;;;;7.25;2.83;;;;;;;;;;4987662;28;92720;-80
2023/07/02 14:30:57;;;;;;;9.40;3.30;;;;;;;;;;4982795;28;93510;-80
2023/07/02 14:33:24;;;;;;;8.13;3.33;;;;;;;;;;4981431;28;93205;-79
2023/07/02 14:35:53;;;;;;;8.13;3.05;;;;;;;;;;4972700;28;94881;-80
2023/07/02 14:38:20;;;;;;;9.30;3.25;;;;;;;;;;4989645;28;94963;-80